createdAt,value
2019-06-07T00:02:08.222Z,99.60
2019-06-07T00:04:38.087Z,99.80
2019-06-07T00:07:08.997Z,99.90
2019-06-07T00:09:38.568Z,99.90
2019-06-07T00:12:09.535Z,99.90
2019-06-07T00:14:39.865Z,99.90
2019-06-07T00:17:12.517Z,99.90
2019-06-07T00:19:40.972Z,99.90
2019-06-07T00:22:19.595Z,99.90
2019-06-07T00:24:41.664Z,99.90
2019-06-07T00:27:12.583Z,99.90
2019-06-07T00:29:42.536Z,99.90
2019-06-07T00:32:14.407Z,99.90
2019-06-07T00:34:43.184Z,99.90
2019-06-07T00:37:14.127Z,99.90
2019-06-07T00:39:43.744Z,99.90
2019-06-07T00:42:17.474Z,99.90
2019-06-07T00:44:45.283Z,99.90
2019-06-07T00:47:16.533Z,99.90
2019-06-07T00:49:46.795Z,99.90
2019-06-07T00:53:07.107Z,99.90
2019-06-07T00:54:47.446Z,99.90
2019-06-07T00:57:19.117Z,99.90
2019-06-07T00:59:48.364Z,99.90
2019-06-07T01:02:19.253Z,99.90
2019-06-07T01:04:48.809Z,99.90
2019-06-07T01:07:20.400Z,99.90
2019-06-07T01:09:51.416Z,99.90
2019-06-07T01:12:23.892Z,99.90
2019-06-07T01:14:52.808Z,99.90
2019-06-07T01:17:41.424Z,99.90
2019-06-07T01:19:58.915Z,99.90
2019-06-07T01:22:29.459Z,99.90
2019-06-07T01:24:59.232Z,99.90
2019-06-07T01:27:29.603Z,99.90
2019-06-07T01:29:59.221Z,99.90
2019-06-07T01:32:31.844Z,99.90
2019-06-07T01:34:59.775Z,99.90
2019-06-07T01:37:30.281Z,99.90
2019-06-07T01:40:00.067Z,99.90
2019-06-07T01:42:30.925Z,99.90
2019-06-07T01:45:00.519Z,99.90
2019-06-07T01:47:32.080Z,99.90
2019-06-07T01:50:01.700Z,99.90
2019-06-07T01:52:31.333Z,99.90
2019-06-07T01:55:01.667Z,99.90
2019-06-07T01:57:45.832Z,99.90
2019-06-07T02:00:02.409Z,99.90
2019-06-07T02:02:32.097Z,99.90
2019-06-07T02:05:01.434Z,99.90
2019-06-07T02:07:33.038Z,99.90
2019-06-07T02:10:02.939Z,99.90
2019-06-07T02:12:42.280Z,99.90
2019-06-07T02:15:04.671Z,99.90
2019-06-07T02:17:36.357Z,99.90
2019-06-07T02:20:06.433Z,99.90
2019-06-07T02:22:36.001Z,99.90
2019-06-07T02:27:39.947Z,99.90
2019-06-07T02:30:36.878Z,99.90
2019-06-07T02:32:41.712Z,99.90
2019-06-07T02:35:11.581Z,99.90
2019-06-07T02:37:41.203Z,99.90
2019-06-07T02:40:11.862Z,99.90
2019-06-07T02:42:42.698Z,99.90
2019-06-07T02:45:13.462Z,99.90
2019-06-07T02:47:44.373Z,99.90
2019-06-07T02:50:14.011Z,99.90
2019-06-07T02:52:44.111Z,99.90
2019-06-07T02:55:14.015Z,99.90
2019-06-07T02:57:43.659Z,99.90
2019-06-07T03:00:45.812Z,99.90
2019-06-07T03:02:45.277Z,99.90
2019-06-07T03:05:14.817Z,99.90
2019-06-07T03:07:48.458Z,99.90
2019-06-07T03:10:18.717Z,99.90
2019-06-07T03:12:51.007Z,99.90
2019-06-07T03:15:32.996Z,99.90
2019-06-07T03:17:59.149Z,99.90
2019-06-07T03:20:34.402Z,99.90
2019-06-07T03:23:05.045Z,99.90
2019-06-07T03:25:40.087Z,99.90
2019-06-07T03:28:09.893Z,99.90
2019-06-07T03:31:00.271Z,99.90
2019-06-07T03:33:11.769Z,99.90
2019-06-07T03:35:41.893Z,99.90
2019-06-07T03:38:11.256Z,99.90
2019-06-07T03:40:40.474Z,99.90
2019-06-07T03:43:10.163Z,99.90
2019-06-07T03:45:41.763Z,99.90
2019-06-07T03:48:11.853Z,99.90
2019-06-07T03:50:42.234Z,99.90
2019-06-07T03:53:11.971Z,99.90
2019-06-07T03:55:41.650Z,99.90
2019-06-07T03:58:31.371Z,99.90
2019-06-07T04:00:43.480Z,99.90
2019-06-07T04:03:32.835Z,99.90
2019-06-07T04:05:44.799Z,99.90
2019-06-07T04:08:15.376Z,99.90
2019-06-07T04:10:59.050Z,99.90
2019-06-07T04:13:15.607Z,99.90
2019-06-07T04:15:44.830Z,99.90
2019-06-07T04:18:15.093Z,99.90
2019-06-07T04:20:44.757Z,99.90
2019-06-07T04:23:27.713Z,99.90
2019-06-07T04:25:46.650Z,99.90
2019-06-07T04:28:16.302Z,99.90
2019-06-07T04:30:46.031Z,99.90
2019-06-07T04:33:16.776Z,99.90
2019-06-07T04:35:46.063Z,99.90
2019-06-07T04:38:16.726Z,99.90
2019-06-07T04:40:47.076Z,99.90
2019-06-07T04:43:16.505Z,99.90
2019-06-07T04:45:51.052Z,99.90
2019-06-07T04:48:22.019Z,99.90
2019-06-07T04:50:52.876Z,99.90
2019-06-07T04:53:22.799Z,99.90
2019-06-07T04:55:52.304Z,99.90
2019-06-07T04:58:22.694Z,99.90
2019-06-07T05:00:59.162Z,99.80
2019-06-07T05:03:24.125Z,99.40
2019-06-07T05:05:53.415Z,98.90
2019-06-07T05:08:28.433Z,98.60
2019-06-07T05:10:54.068Z,98.10
2019-06-07T05:13:23.438Z,97.80
2019-06-07T05:15:53.403Z,97.80
2019-06-07T05:18:22.937Z,97.30
2019-06-07T05:20:52.807Z,97.60
2019-06-07T05:23:59.930Z,97.20
2019-06-07T05:25:53.782Z,95.80
2019-06-07T05:28:23.237Z,95.50
2019-06-07T05:31:05.135Z,95.80
2019-06-07T05:33:23.705Z,95.30
2019-06-07T05:35:53.032Z,95.30
2019-06-07T05:38:22.287Z,96.10
2019-06-07T05:40:52.130Z,96.40
2019-06-07T05:43:35.005Z,96.10
2019-06-07T05:46:02.117Z,95.70
2019-06-07T05:48:31.798Z,95.10
2019-06-07T05:51:01.491Z,95.00
2019-06-07T05:53:31.685Z,94.30
2019-06-07T05:56:02.440Z,94.30
2019-06-07T05:58:32.796Z,93.70
2019-06-07T06:01:41.698Z,94.10
2019-06-07T06:03:35.017Z,94.50
2019-06-07T06:06:05.419Z,93.70
2019-06-07T06:08:36.588Z,94.10
2019-06-07T06:11:06.330Z,94.60
2019-06-07T06:13:38.273Z,93.60
2019-06-07T06:16:07.308Z,93.50
2019-06-07T06:18:38.036Z,93.80
2019-06-07T06:21:18.126Z,93.50
2019-06-07T06:23:39.613Z,92.60
2019-06-07T06:26:10.030Z,93.50
2019-06-07T06:28:43.260Z,92.40
2019-06-07T06:31:14.511Z,92.60
2019-06-07T06:33:45.248Z,92.50
2019-06-07T06:36:15.000Z,92.60
2019-06-07T06:38:46.365Z,92.50
2019-06-07T06:41:16.905Z,92.40
2019-06-07T06:43:50.295Z,92.60
2019-06-07T06:46:37.333Z,92.80
2019-06-07T06:48:54.760Z,91.50
2019-06-07T06:51:20.166Z,91.60
2019-06-07T06:53:52.443Z,92.60
2019-06-07T06:56:21.268Z,91.40
2019-06-07T06:59:27.251Z,92.10
2019-06-07T07:01:22.046Z,91.60
2019-06-07T07:04:11.053Z,91.70
2019-06-07T07:06:26.295Z,91.20
2019-06-07T07:08:54.846Z,92.10
2019-06-07T07:11:24.156Z,91.60
2019-06-07T07:13:56.725Z,90.70
2019-06-07T07:16:24.675Z,90.80
2019-06-07T07:18:54.713Z,90.20
2019-06-07T07:21:24.504Z,89.50
2019-06-07T07:24:19.708Z,89.00
2019-06-07T07:26:26.056Z,89.30
2019-06-07T07:28:57.805Z,90.70
2019-06-07T07:31:26.479Z,90.30
2019-06-07T07:36:38.689Z,89.70
2019-06-07T07:39:04.485Z,90.00
2019-06-07T07:41:29.460Z,89.50
2019-06-07T07:44:06.023Z,88.40
2019-06-07T07:46:30.676Z,87.00
2019-06-07T07:49:00.305Z,88.10
2019-06-07T07:51:29.679Z,89.60
2019-06-07T07:54:10.313Z,88.70
2019-06-07T07:56:30.899Z,85.30
2019-06-07T07:59:02.318Z,87.70
2019-06-07T08:01:32.449Z,88.00
2019-06-07T08:04:01.681Z,85.20
2019-06-07T08:06:31.333Z,84.80
2019-06-07T08:09:01.364Z,86.70
2019-06-07T08:11:30.627Z,87.50
2019-06-07T08:14:00.362Z,87.00
2019-06-07T08:16:29.577Z,84.60
2019-06-07T08:19:04.081Z,84.00
2019-06-07T08:21:30.070Z,83.60
2019-06-07T08:24:03.683Z,83.90
2019-06-07T08:26:30.505Z,83.20
2019-06-07T08:29:02.668Z,82.10
2019-06-07T08:31:31.210Z,84.10
2019-06-07T08:34:00.918Z,85.40
2019-06-07T08:36:41.372Z,84.60
2019-06-07T08:39:07.210Z,85.00
2019-06-07T08:41:33.198Z,84.70
2019-06-07T08:44:22.417Z,84.30
2019-06-07T08:46:33.519Z,84.60
2019-06-07T08:49:05.723Z,83.10
2019-06-07T08:51:35.827Z,83.60
2019-06-07T08:54:21.742Z,82.00
2019-06-07T08:56:36.591Z,82.30
2019-06-07T08:59:11.511Z,83.90
2019-06-07T09:01:38.114Z,83.00
2019-06-07T09:04:10.890Z,82.50
2019-06-07T09:07:07.247Z,82.90
2019-06-07T09:09:10.285Z,80.50
2019-06-07T09:11:39.626Z,81.60
2019-06-07T09:14:09.512Z,83.70
2019-06-07T09:16:39.935Z,85.30
2019-06-07T09:19:11.043Z,81.30
2019-06-07T09:21:40.609Z,81.40
2019-06-07T09:24:11.685Z,83.80
2019-06-07T09:26:40.759Z,81.90
2019-06-07T09:29:12.046Z,80.80
2019-06-07T09:31:52.554Z,80.40
2019-06-07T09:34:15.105Z,81.00
2019-06-07T09:36:44.024Z,82.10
2019-06-07T09:39:13.616Z,80.70
2019-06-07T09:41:49.508Z,82.40
2019-06-07T09:44:25.130Z,81.90
2019-06-07T09:46:46.326Z,85.20
2019-06-07T09:49:28.279Z,80.50
2019-06-07T09:51:46.675Z,83.50
2019-06-07T09:55:02.279Z,80.10
2019-06-07T09:56:48.208Z,80.70
2019-06-07T09:59:18.217Z,82.30
2019-06-07T10:01:47.447Z,82.70
2019-06-07T10:04:30.618Z,78.60
2019-06-07T10:06:48.033Z,80.20
2019-06-07T10:11:48.924Z,83.00
2019-06-07T10:14:18.342Z,82.80
2019-06-07T10:16:48.353Z,80.20
2019-06-07T10:19:18.135Z,82.10
2019-06-07T10:21:47.397Z,78.50
2019-06-07T10:24:16.648Z,79.20
2019-06-07T10:26:46.172Z,79.00
2019-06-07T10:29:16.039Z,78.90
2019-06-07T10:31:45.595Z,80.60
2019-06-07T10:34:15.110Z,80.20
2019-06-07T10:36:44.405Z,78.50
2019-06-07T10:39:14.288Z,76.60
2019-06-07T10:41:43.705Z,76.80
2019-06-07T10:44:13.512Z,77.40
2019-06-07T10:46:42.767Z,77.60
2019-06-07T10:49:12.552Z,73.30
2019-06-07T10:51:42.142Z,75.70
2019-06-07T10:54:24.583Z,74.70
2019-06-07T10:56:42.914Z,75.70
2019-06-07T10:59:13.710Z,75.70
2019-06-07T11:01:43.176Z,76.40
2019-06-07T11:04:13.818Z,74.00
2019-06-07T11:06:43.465Z,78.40
2019-06-07T11:09:14.145Z,75.10
2019-06-07T11:11:43.735Z,75.00
2019-06-07T11:14:14.617Z,75.60
2019-06-07T16:48:34.252Z,60.90
2019-06-07T16:51:07.306Z,63.00
2019-06-07T16:53:38.188Z,64.80
2019-06-07T16:56:07.942Z,67.00
2019-06-07T16:58:37.833Z,68.60
2019-06-07T17:01:07.430Z,69.80
2019-06-07T17:03:37.655Z,71.10
2019-06-07T17:06:07.629Z,72.40
2019-06-07T17:08:37.978Z,73.30
2019-06-07T17:11:09.527Z,75.40
2019-06-07T17:13:40.303Z,77.20
2019-06-07T17:16:09.934Z,78.00
2019-06-07T17:18:39.286Z,77.50
2019-06-07T17:21:08.501Z,74.30
2019-06-07T17:26:06.971Z,66.60
2019-06-07T17:28:36.393Z,66.80
2019-06-07T17:33:35.580Z,68.30
2019-06-07T17:36:05.743Z,68.90
2019-06-07T17:38:36.059Z,69.80
2019-06-07T17:43:48.626Z,71.20
2019-06-07T17:46:06.396Z,73.00
2019-06-07T17:48:36.793Z,73.30
2019-06-07T17:51:06.605Z,74.40
2019-06-07T17:53:36.534Z,76.10
2019-06-07T17:56:09.362Z,75.00
2019-06-07T17:58:39.007Z,76.60
2019-06-07T18:01:10.147Z,76.80
2019-06-07T18:03:39.734Z,77.10
2019-06-07T18:06:09.228Z,77.70
2019-06-07T18:08:38.580Z,76.30
2019-06-07T18:11:08.944Z,76.90
2019-06-07T18:13:38.404Z,77.70
2019-06-07T18:16:07.839Z,77.00
2019-06-07T18:18:38.352Z,77.80
2019-06-07T18:21:08.071Z,77.80
2019-06-07T18:23:38.253Z,77.60
2019-06-07T18:26:07.853Z,77.60
2019-06-07T18:28:38.280Z,78.00
2019-06-07T18:31:08.900Z,77.70
2019-06-07T18:33:38.398Z,78.00
2019-06-07T18:36:07.969Z,77.30
2019-06-07T18:38:38.585Z,77.90
2019-06-07T18:41:08.041Z,76.90
2019-06-07T18:43:37.563Z,77.10
2019-06-07T18:46:07.252Z,78.60
2019-06-07T18:48:37.094Z,76.80
2019-06-07T18:51:07.537Z,76.70
2019-06-07T18:53:37.305Z,76.50
2019-06-07T18:56:07.654Z,77.30
2019-06-07T18:58:37.492Z,75.20
2019-06-07T19:01:07.427Z,76.40
2019-06-07T19:03:37.443Z,76.70
2019-06-07T19:06:07.450Z,76.60
2019-06-07T19:08:37.688Z,76.70
2019-06-07T19:11:07.419Z,75.90
2019-06-07T19:13:38.389Z,75.60
2019-06-07T19:16:08.581Z,75.40
2019-06-07T19:18:38.874Z,75.40
2019-06-07T19:21:08.637Z,75.50
2019-06-07T19:23:38.867Z,76.10
2019-06-07T19:26:08.108Z,74.80
2019-06-07T19:28:38.293Z,76.10
2019-06-07T19:31:08.119Z,75.00
2019-06-07T19:33:48.689Z,75.30
2019-06-07T19:36:09.943Z,75.50
2019-06-07T19:38:40.445Z,75.50
2019-06-07T19:41:19.213Z,75.60
2019-06-07T19:43:41.908Z,75.50
2019-06-07T19:46:11.636Z,75.20
2019-06-07T19:48:40.815Z,75.10
2019-06-07T19:51:10.580Z,75.60
2019-06-07T19:53:40.210Z,75.10
2019-06-07T19:56:13.432Z,75.40
2019-06-07T19:58:42.649Z,76.70
2019-06-07T20:01:12.231Z,75.80
2019-06-07T20:03:41.552Z,75.10
2019-06-07T20:06:11.836Z,75.20
2019-06-07T20:08:42.347Z,76.30
2019-06-07T20:11:11.920Z,75.80
2019-06-07T20:13:48.349Z,76.30
2019-06-07T20:16:18.114Z,76.50
2019-06-07T20:18:47.855Z,77.30
2019-06-07T20:21:17.840Z,77.60
2019-06-07T20:23:47.360Z,77.50
2019-06-07T20:26:21.192Z,77.00
2019-06-07T20:28:50.814Z,78.70
2019-06-07T20:31:20.455Z,78.30
2019-06-07T20:33:51.144Z,78.10
2019-06-07T20:36:21.160Z,78.40
2019-06-07T20:38:50.565Z,79.50
2019-06-07T20:41:20.303Z,81.30
2019-06-07T20:43:53.546Z,80.40
2019-06-07T20:46:23.910Z,81.30
2019-06-07T20:48:53.870Z,81.00
2019-06-07T20:51:23.910Z,81.30
2019-06-07T20:53:53.705Z,80.50
2019-06-07T20:56:25.373Z,81.40
2019-06-07T20:58:55.228Z,80.80
2019-06-07T21:01:25.815Z,81.20
2019-06-07T21:03:55.295Z,81.50
2019-06-07T21:06:24.792Z,82.90
2019-06-07T21:08:54.131Z,83.90
2019-06-07T21:11:23.375Z,84.00
2019-06-07T21:13:52.725Z,83.90
2019-06-07T21:16:22.530Z,84.60
2019-06-07T21:18:52.432Z,86.10
2019-06-07T21:21:21.962Z,87.30
2019-06-07T21:23:51.852Z,87.90
2019-06-07T21:26:21.203Z,89.20
2019-06-07T21:28:50.678Z,88.40
2019-06-07T21:31:20.002Z,88.30
2019-06-07T21:33:49.789Z,88.30
2019-06-07T21:36:18.955Z,88.90
2019-06-07T21:38:48.114Z,89.50
2019-06-07T21:41:17.304Z,90.40
2019-06-07T21:43:46.549Z,91.60
2019-06-07T21:46:20.449Z,92.40
2019-06-07T21:48:47.691Z,92.90
2019-06-07T21:51:17.113Z,93.30
2019-06-07T21:53:46.280Z,93.30
2019-06-07T21:56:16.159Z,93.30
2019-06-07T21:58:45.391Z,93.50
2019-06-07T22:01:22.592Z,93.60
2019-06-07T22:03:51.907Z,93.90
2019-06-07T22:06:21.247Z,93.90
2019-06-07T22:08:50.525Z,94.10
2019-06-07T22:11:19.831Z,94.60
2019-06-07T22:13:49.029Z,94.80
2019-06-07T22:16:28.530Z,95.40
2019-06-07T22:18:49.823Z,95.10
2019-06-07T22:21:19.342Z,95.60
2019-06-07T22:23:48.915Z,95.90
2019-06-07T22:26:18.540Z,96.50
2019-06-07T22:28:48.179Z,96.80
2019-06-07T22:31:17.436Z,96.50
2019-06-07T22:33:46.721Z,96.60
2019-06-07T22:36:17.039Z,96.50
2019-06-07T22:38:48.218Z,96.50
2019-06-07T22:41:18.002Z,96.70
2019-06-07T22:43:47.594Z,96.60
2019-06-07T22:46:17.461Z,96.70
2019-06-07T22:48:46.804Z,96.20
2019-06-07T22:51:16.488Z,96.90
2019-06-07T22:53:47.067Z,96.50
2019-06-07T22:56:32.046Z,95.80
2019-06-07T22:59:01.629Z,95.60
2019-06-07T23:01:30.980Z,96.20
2019-06-07T23:04:00.463Z,95.80
2019-06-07T23:06:30.300Z,96.20
2019-06-07T23:08:59.485Z,97.40
2019-06-07T23:11:29.295Z,97.50
2019-06-07T23:13:59.137Z,97.80
2019-06-07T23:16:29.063Z,97.00
2019-06-07T23:18:58.361Z,97.60
2019-06-07T23:21:28.291Z,97.20
2019-06-07T23:23:57.459Z,97.20
2019-06-07T23:26:27.135Z,97.40
2019-06-07T23:28:56.491Z,97.60
2019-06-07T23:31:26.231Z,97.60
2019-06-07T23:33:55.882Z,97.70
2019-06-07T23:36:26.264Z,97.70
2019-06-07T23:38:55.524Z,97.70
2019-06-07T23:41:24.938Z,97.60
2019-06-07T23:43:54.518Z,97.70
2019-06-07T23:46:24.143Z,97.50
2019-06-07T23:48:53.759Z,97.60
2019-06-07T23:51:23.267Z,97.70
2019-06-07T23:53:52.517Z,97.60
2019-06-07T23:56:22.603Z,97.60
2019-06-07T23:58:52.002Z,97.80
